CST,Max TemperatureF,Mean TemperatureF,Min TemperatureF,Max Dew PointF,MeanDew PointF,Min DewpointF,Max Humidity, Mean Humidity, Min Humidity, Max Sea Level PressureIn, Mean Sea Level PressureIn, Min Sea Level PressureIn, Max VisibilityMiles, Mean VisibilityMiles, Min VisibilityMiles, Max Wind SpeedMPH, Mean Wind SpeedMPH, Max Gust SpeedMPH,PrecipitationIn, CloudCover, Events, WindDirDegrees
2013-2-1,-2,-11,-20,-9,-14,-28,78,70,64,30.27,30.10,30.05,10,10,6,15,7,,0.00,7,Snow,169
2013-2-2,8,-2,-13,3,-6,-18,79,75,67,30.21,30.07,29.98,10,7,1,20,7,23,0.00,7,Snow,208
2013-2-3,5,-1,-7,-2,-5,-13,79,71,56,30.12,30.09,30.05,10,10,9,10,6,,0.00,6,Snow,351
2013-2-4,30,14,0,25,8,-8,86,79,66,30.08,29.74,29.56,10,6,1,23,13,,0.00,7,Snow,183
2013-2-5,28,14,0,23,3,-5,86,77,72,30.08,29.93,29.61,10,9,4,23,14,31,0.00,8,Snow,19
2013-2-6,17,14,10,14,11,6,86,83,79,30.18,29.97,29.94,10,5,0,16,10,,0.00,8,Fog-Snow,92
2013-2-7,10,5,0,7,2,-6,92,82,73,30.33,30.29,30.20,10,10,8,12,7,,0.00,7,,23
2013-2-8,23,16,10,20,15,7,93,85,74,30.31,30.18,30.03,10,9,2,23,11,28,0.00,7,Snow,179
2013-2-9,28,26,23,23,22,19,93,90,81,30.02,29.95,29.91,10,9,6,16,9,,0.00,8,,204
2013-2-10,28,24,21,27,24,19,100,92,86,29.91,29.79,29.68,10,3,1,31,13,39,0.00,8,Snow,25
2013-2-11,23,16,10,19,14,6,93,81,65,30.00,29.91,29.79,10,8,2,29,20,39,0.00,7,Snow,342
2013-2-12,32,22,13,23,16,8,81,75,63,29.86,29.80,29.74,10,10,10,17,11,17,0.00,3,Snow,264
2013-2-13,28,22,17,22,18,14,93,85,76,29.83,29.71,29.65,10,10,10,9,6,,0.00,2,Snow,316
2013-2-14,19,12,1,14,4,-3,81,75,64,30.29,30.12,29.85,10,10,10,18,12,23,0.00,5,,352
2013-2-15,16,6,-4,9,0,-9,85,76,62,30.38,30.33,30.22,10,10,10,12,5,,0.00,2,Snow,309
2013-2-16,16,6,-4,12,2,-9,86,81,73,30.22,30.07,29.92,10,9,0,18,8,,0.00,5,Snow,178
2013-2-17,30,24,17,27,22,12,93,87,79,29.90,29.62,29.50,10,8,2,22,16,29,0.00,7,Rain-Snow,195
2013-2-18,24,10,-6,23,3,-13,93,80,70,30.20,29.87,29.55,10,2,0,36,24,48,0.00,8,Snow,357
2013-2-19,-5,-10,-15,-14,-18,-22,72,67,64,30.52,30.37,30.22,10,10,10,24,19,30,0.00,4,,360
2013-2-20,1,-10,-20,-6,-15,-27,77,70,65,30.53,30.46,30.37,10,10,10,9,4,,0.00,1,,48
2013-2-21,15,6,-4,6,-1,-10,83,72,60,30.41,30.34,30.22,10,10,10,14,6,,0.00,3,Snow,136
2013-2-22,16,8,0,13,9,-4,93,84,68,30.21,30.00,29.95,10,5,1,9,4,,0.00,7,Snow,332
2013-2-23,18,10,1,14,9,-2,93,87,75,29.96,29.91,29.88,10,6,1,9,4,,0.00,6,Snow,195
2013-2-24,25,12,-1,21,12,-6,87,83,74,30.04,30.01,29.96,10,10,10,12,6,,0.00,4,Snow,195
2013-2-25,33,18,3,25,14,0,89,81,69,30.06,30.02,29.97,10,10,10,14,7,,0.00,0,Snow,217
2013-2-26,24,16,7,18,10,4,92,85,78,30.12,30.06,29.98,10,9,5,15,9,,0.00,1,Snow,173
2013-2-27,28,19,10,22,15,9,92,84,74,30.26,30.17,30.13,10,10,7,23,10,28,0.00,3,Snow,344
2013-2-28,25,18,9,18,15,5,85,81,73,30.36,30.32,30.26,10,10,10,14,11,,0.00,6,,7